sensor_id;sensor_type;location;lat;lon;timestamp;temperature;humidity
44359;DHT22;30077;52.474;13.326;2023-11-21T00:03:21;9.00;99.90
44359;DHT22;30077;52.474;13.326;2023-11-21T00:13:24;8.30;99.90
44359;DHT22;30077;52.474;13.326;2023-11-21T00:23:25;7.90;99.90
44359;DHT22;30077;52.474;13.326;2023-11-21T00:33:26;7.70;99.90
44359;DHT22;30077;52.474;13.326;2023-11-21T00:43:28;7.50;99.90
44359;DHT22;30077;52.474;13.326;2023-11-21T00:53:28;7.60;99.90
44359;DHT22;30077;52.474;13.326;2023-11-21T01:03:29;7.20;99.90
44359;DHT22;30077;52.474;13.326;2023-11-21T01:13:30;7.00;99.90
44359;DHT22;30077;52.474;13.326;2023-11-21T01:23:31;7.00;99.90
44359;DHT22;30077;52.474;13.326;2023-11-21T01:33:32;6.80;99.90
44359;DHT22;30077;52.474;13.326;2023-11-21T01:43:33;6.80;99.90
44359;DHT22;30077;52.474;13.326;2023-11-21T01:53:37;6.70;99.90
44359;DHT22;30077;52.474;13.326;2023-11-21T02:03:39;6.70;99.90
44359;DHT22;30077;52.474;13.326;2023-11-21T02:13:40;6.70;99.90
44359;DHT22;30077;52.474;13.326;2023-11-21T02:23:43;6.60;99.90
44359;DHT22;30077;52.474;13.326;2023-11-21T02:33:44;6.40;99.90
44359;DHT22;30077;52.474;13.326;2023-11-21T02:43:48;6.40;99.90
44359;DHT22;30077;52.474;13.326;2023-11-21T02:53:49;6.40;99.90
44359;DHT22;30077;52.474;13.326;2023-11-21T03:03:51;6.30;99.90
44359;DHT22;30077;52.474;13.326;2023-11-21T03:13:52;6.30;99.90
44359;DHT22;30077;52.474;13.326;2023-11-21T03:23:53;6.20;99.90
44359;DHT22;30077;52.474;13.326;2023-11-21T03:33:53;6.10;99.90
44359;DHT22;30077;52.474;13.326;2023-11-21T03:43:56;6.00;99.90
44359;DHT22;30077;52.474;13.326;2023-11-21T03:53:56;6.00;99.90
44359;DHT22;30077;52.474;13.326;2023-11-21T04:03:57;6.00;99.90
44359;DHT22;30077;52.474;13.326;2023-11-21T04:13:57;6.00;99.90
44359;DHT22;30077;52.474;13.326;2023-11-21T04:23:58;5.90;99.90
44359;DHT22;30077;52.474;13.326;2023-11-21T04:33:59;5.80;99.90
44359;DHT22;30077;52.474;13.326;2023-11-21T04:44:00;5.90;99.90
44359;DHT22;30077;52.474;13.326;2023-11-21T04:54:00;5.80;99.90
44359;DHT22;30077;52.474;13.326;2023-11-21T05:04:01;5.90;99.90
44359;DHT22;30077;52.474;13.326;2023-11-21T05:14:02;5.90;99.90
44359;DHT22;30077;52.474;13.326;2023-11-21T05:24:04;5.80;99.90
44359;DHT22;30077;52.474;13.326;2023-11-21T05:34:05;5.90;99.90
44359;DHT22;30077;52.474;13.326;2023-11-21T05:44:06;5.70;99.90
44359;DHT22;30077;52.474;13.326;2023-11-21T05:54:07;5.60;99.90
44359;DHT22;30077;52.474;13.326;2023-11-21T06:04:08;5.60;99.90
44359;DHT22;30077;52.474;13.326;2023-11-21T06:14:09;5.60;99.90
44359;DHT22;30077;52.474;13.326;2023-11-21T06:24:11;5.50;99.90
44359;DHT22;30077;52.474;13.326;2023-11-21T06:34:11;5.40;99.90
44359;DHT22;30077;52.474;13.326;2023-11-21T06:44:12;5.40;99.90
44359;DHT22;30077;52.474;13.326;2023-11-21T06:54:13;5.50;99.90
44359;DHT22;30077;52.474;13.326;2023-11-21T07:04:14;5.40;99.90
44359;DHT22;30077;52.474;13.326;2023-11-21T07:14:15;5.50;99.90
44359;DHT22;30077;52.474;13.326;2023-11-21T07:24:17;5.40;99.90
44359;DHT22;30077;52.474;13.326;2023-11-21T07:34:18;5.30;99.90
44359;DHT22;30077;52.474;13.326;2023-11-21T07:44:20;5.30;99.90
44359;DHT22;30077;52.474;13.326;2023-11-21T07:54:20;5.20;99.90
44359;DHT22;30077;52.474;13.326;2023-11-21T08:30:40;5.30;99.90
44359;DHT22;30077;52.474;13.326;2023-11-21T08:40:41;5.30;99.90
44359;DHT22;30077;52.474;13.326;2023-11-21T08:50:42;5.10;99.90
44359;DHT22;30077;52.474;13.326;2023-11-21T09:00:44;5.30;99.90
44359;DHT22;30077;52.474;13.326;2023-11-21T09:10:46;5.40;99.90
44359;DHT22;30077;52.474;13.326;2023-11-21T09:20:47;5.20;99.90
44359;DHT22;30077;52.474;13.326;2023-11-21T09:30:48;5.10;99.90
44359;DHT22;30077;52.474;13.326;2023-11-21T09:40:50;5.00;99.90
44359;DHT22;30077;52.474;13.326;2023-11-21T09:50:54;5.10;99.90
44359;DHT22;30077;52.474;13.326;2023-11-21T10:00:55;5.10;99.90
44359;DHT22;30077;52.474;13.326;2023-11-21T10:10:58;5.20;99.90
44359;DHT22;30077;52.474;13.326;2023-11-21T10:21:00;5.00;99.90
44359;DHT22;30077;52.474;13.326;2023-11-21T10:31:01;4.90;99.90
44359;DHT22;30077;52.474;13.326;2023-11-21T10:41:01;4.80;99.90
44359;DHT22;30077;52.474;13.326;2023-11-21T10:51:08;4.90;99.90
44359;DHT22;30077;52.474;13.326;2023-11-21T11:01:10;4.80;99.90
44359;DHT22;30077;52.474;13.326;2023-11-21T11:11:14;4.70;99.90
44359;DHT22;30077;52.474;13.326;2023-11-21T11:32:01;4.60;99.90
44359;DHT22;30077;52.474;13.326;2023-11-21T11:42:14;4.40;99.90
44359;DHT22;30077;52.474;13.326;2023-11-21T11:52:46;4.30;99.90
44359;DHT22;30077;52.474;13.326;2023-11-21T12:02:51;4.30;99.90
44359;DHT22;30077;52.474;13.326;2023-11-21T12:12:55;4.20;99.90
44359;DHT22;30077;52.474;13.326;2023-11-21T12:22:58;4.20;99.90
44359;DHT22;30077;52.474;13.326;2023-11-21T12:33:00;4.20;99.90
44359;DHT22;30077;52.474;13.326;2023-11-21T12:43:01;4.20;99.90
44359;DHT22;30077;52.474;13.326;2023-11-21T12:53:09;4.20;99.90
44359;DHT22;30077;52.474;13.326;2023-11-21T13:03:14;4.30;99.90
44359;DHT22;30077;52.474;13.326;2023-11-21T13:13:17;4.40;99.90
44359;DHT22;30077;52.474;13.326;2023-11-21T13:23:18;4.60;99.90
44359;DHT22;30077;52.474;13.326;2023-11-21T13:33:19;4.40;99.90
44359;DHT22;30077;52.474;13.326;2023-11-21T13:43:24;4.30;99.90
44359;DHT22;30077;52.474;13.326;2023-11-21T13:53:26;4.10;99.90
44359;DHT22;30077;52.474;13.326;2023-11-21T14:03:26;4.10;99.90
44359;DHT22;30077;52.474;13.326;2023-11-21T14:13:39;3.80;99.90
44359;DHT22;30077;52.474;13.326;2023-11-21T14:23:45;3.80;99.90
44359;DHT22;30077;52.474;13.326;2023-11-21T14:33:47;3.70;99.90
44359;DHT22;30077;52.474;13.326;2023-11-21T14:43:47;3.50;99.90
44359;DHT22;30077;52.474;13.326;2023-11-21T14:53:50;3.30;99.90
44359;DHT22;30077;52.474;13.326;2023-11-21T15:04:00;3.20;99.90
44359;DHT22;30077;52.474;13.326;2023-11-21T15:14:01;3.10;99.90
44359;DHT22;30077;52.474;13.326;2023-11-21T15:24:07;2.90;99.90
44359;DHT22;30077;52.474;13.326;2023-11-21T15:34:07;3.00;99.90
44359;DHT22;30077;52.474;13.326;2023-11-21T15:44:08;3.00;99.90
44359;DHT22;30077;52.474;13.326;2023-11-21T15:54:11;3.00;99.90
44359;DHT22;30077;52.474;13.326;2023-11-21T16:04:12;3.00;99.90
44359;DHT22;30077;52.474;13.326;2023-11-21T16:14:17;3.10;99.90
44359;DHT22;30077;52.474;13.326;2023-11-21T16:24:19;3.00;99.90
44359;DHT22;30077;52.474;13.326;2023-11-21T16:34:21;2.90;99.90
44359;DHT22;30077;52.474;13.326;2023-11-21T16:44:22;2.80;99.90
44359;DHT22;30077;52.474;13.326;2023-11-21T16:54:23;2.80;99.90
44359;DHT22;30077;52.474;13.326;2023-11-21T17:04:25;2.80;99.90
44359;DHT22;30077;52.474;13.326;2023-11-21T17:14:26;2.90;99.90
44359;DHT22;30077;52.474;13.326;2023-11-21T17:24:26;2.80;99.90
44359;DHT22;30077;52.474;13.326;2023-11-21T17:34:27;3.00;99.90
44359;DHT22;30077;52.474;13.326;2023-11-21T17:44:28;3.00;99.90
44359;DHT22;30077;52.474;13.326;2023-11-21T17:54:28;2.90;99.90
44359;DHT22;30077;52.474;13.326;2023-11-21T18:04:30;2.90;99.90
44359;DHT22;30077;52.474;13.326;2023-11-21T18:14:30;2.70;99.90
44359;DHT22;30077;52.474;13.326;2023-11-21T18:24:31;2.60;99.90
44359;DHT22;30077;52.474;13.326;2023-11-21T18:34:32;2.50;99.90
44359;DHT22;30077;52.474;13.326;2023-11-21T18:44:34;2.40;99.90
44359;DHT22;30077;52.474;13.326;2023-11-21T18:54:35;2.50;99.90
44359;DHT22;30077;52.474;13.326;2023-11-21T19:04:37;2.40;99.90
44359;DHT22;30077;52.474;13.326;2023-11-21T19:14:38;2.30;99.90
44359;DHT22;30077;52.474;13.326;2023-11-21T19:24:38;2.40;99.90
44359;DHT22;30077;52.474;13.326;2023-11-21T19:34:43;2.40;99.90
44359;DHT22;30077;52.474;13.326;2023-11-21T19:44:44;2.40;99.90
44359;DHT22;30077;52.474;13.326;2023-11-21T19:54:44;2.30;99.90
44359;DHT22;30077;52.474;13.326;2023-11-21T20:04:45;2.30;99.90
44359;DHT22;30077;52.474;13.326;2023-11-21T20:14:46;2.40;99.90
44359;DHT22;30077;52.474;13.326;2023-11-21T20:24:47;2.30;99.90
44359;DHT22;30077;52.474;13.326;2023-11-21T20:34:47;2.30;99.90
44359;DHT22;30077;52.474;13.326;2023-11-21T20:44:48;2.20;99.90
44359;DHT22;30077;52.474;13.326;2023-11-21T20:54:48;2.00;99.90
44359;DHT22;30077;52.474;13.326;2023-11-21T21:04:49;2.10;99.90
44359;DHT22;30077;52.474;13.326;2023-11-21T21:14:50;2.10;99.90
44359;DHT22;30077;52.474;13.326;2023-11-21T21:24:52;2.00;99.90
44359;DHT22;30077;52.474;13.326;2023-11-21T21:34:55;2.00;99.90
44359;DHT22;30077;52.474;13.326;2023-11-21T21:44:56;2.00;99.90
44359;DHT22;30077;52.474;13.326;2023-11-21T21:54:57;2.00;99.90
44359;DHT22;30077;52.474;13.326;2023-11-21T22:04:57;1.90;99.90
44359;DHT22;30077;52.474;13.326;2023-11-21T22:14:58;1.80;99.90
44359;DHT22;30077;52.474;13.326;2023-11-21T22:24:59;1.70;99.90
44359;DHT22;30077;52.474;13.326;2023-11-21T22:35:00;1.70;99.90
44359;DHT22;30077;52.474;13.326;2023-11-21T22:45:02;1.60;99.90
44359;DHT22;30077;52.474;13.326;2023-11-21T22:55:04;1.50;99.90
44359;DHT22;30077;52.474;13.326;2023-11-21T23:05:05;1.50;99.90
44359;DHT22;30077;52.474;13.326;2023-11-21T23:15:07;1.50;99.90
44359;DHT22;30077;52.474;13.326;2023-11-21T23:25:08;1.60;99.90
44359;DHT22;30077;52.474;13.326;2023-11-21T23:35:09;1.60;99.90
44359;DHT22;30077;52.474;13.326;2023-11-21T23:45:10;1.60;99.90
44359;DHT22;30077;52.474;13.326;2023-11-21T23:55:13;1.50;99.90
